Time;durP1;ratioP1;P1;durP2;ratioP2;P2;SDS_P1;SDS_P2;PMS_P1;PMS_P2;Temp;Humidity;BMP_temperature;BMP_pressure;BME280_temperature;BME280_humidity;BME280_pressure;Samples;Min_cycle;Max_cycle;Signal;HPM_P1;HPM_P2
2021/12/18 00:01:58;;;;;;;24.13;8.43;;;;;;;5.54;100.00;103743.81;5014787;28;20026;-79
2021/12/18 00:04:30;;;;;;;21.07;8.07;;;;;;;5.55;100.00;103748.16;5032632;28;20045;-78
2021/12/18 00:06:57;;;;;;;20.25;7.38;;;;;;;5.49;100.00;103751.91;5015265;28;20291;-80
2021/12/18 00:09:25;;;;;;;17.35;6.18;;;;;;;5.61;100.00;103763.84;5030158;28;20037;-78
2021/12/18 00:11:50;;;;;;;20.75;7.88;;;;;;;5.53;100.00;103742.09;5014671;28;20033;-79
2021/12/18 00:14:16;;;;;;;17.23;6.72;;;;;;;5.58;100.00;103762.19;5030280;28;20025;-78
2021/12/18 00:16:41;;;;;;;17.25;6.32;;;;;;;5.54;100.00;103739.34;5031434;28;20915;-79
2021/12/18 00:19:07;;;;;;;16.33;6.17;;;;;;;5.54;100.00;103744.66;5013003;28;20062;-79
2021/12/18 00:21:36;;;;;;;20.27;6.25;;;;;;;5.58;100.00;103740.13;5010404;28;20056;-79
2021/12/18 00:24:07;;;;;;;19.52;6.35;;;;;;;5.53;100.00;103729.69;5010715;28;20146;-79
2021/12/18 00:26:33;;;;;;;27.65;7.93;;;;;;;5.53;100.00;103731.47;5010556;28;20041;-79
2021/12/18 00:28:58;;;;;;;;;;;;;;;5.53;100.00;103731.47;5026892;28;20048;-79
2021/12/18 00:31:24;;;;;;;;;;;;;;;5.55;100.00;103742.88;4998751;28;19913;-78
2021/12/18 00:33:49;;;;;;;14.67;5.23;;;;;;;5.53;100.00;103736.78;5029964;28;19920;-79
2021/12/18 00:36:15;;;;;;;19.83;6.20;;;;;;;5.52;100.00;103729.72;5047816;28;20044;-79
2021/12/18 00:38:41;;;;;;;17.00;6.45;;;;;;;5.53;100.00;103731.47;5016800;28;20419;-79
2021/12/18 00:43:38;;;;;;;;;;;;;;;5.58;100.00;103738.34;4994774;28;20587;-79
2021/12/18 00:46:04;;;;;;;16.52;5.18;;;;;;;5.54;100.00;103727.91;4978083;28;19913;-79
2021/12/18 00:48:30;;;;;;;19.02;6.35;;;;;;;5.53;100.00;103720.88;4978921;28;20033;-79
2021/12/18 00:50:56;;;;;;;36.50;8.27;;;;;;;5.43;100.00;103710.63;4993990;28;20646;-79
2021/12/18 00:53:22;;;;;;;15.18;5.72;;;;;;;5.48;100.00;103726.34;4994204;28;20530;-78
2021/12/18 00:55:50;;;;;;;16.08;6.50;;;;;;;5.53;100.00;103736.78;4993873;28;20033;-78
2021/12/18 00:58:15;;;;;;;17.77;7.00;;;;;;;5.52;100.00;103738.53;5002672;28;20123;-78
2021/12/18 01:00:42;;;;;;;23.27;5.47;;;;;;;5.54;100.00;103738.50;5012551;28;20092;-79
2021/12/18 01:03:17;;;;;;;18.42;5.88;;;;;;;5.49;100.00;103736.88;4997352;28;20048;-79
2021/12/18 01:05:43;;;;;;;16.65;4.72;;;;;;;5.48;100.00;103748.41;5029945;28;20068;-78
2021/12/18 01:08:09;;;;;;;10.60;4.53;;;;;;;5.43;100.00;103745.06;5005438;28;20045;-79
2021/12/18 01:13:03;;;;;;;16.38;6.10;;;;;;;5.45;100.00;103752.94;4993889;28;20388;-79
2021/12/18 01:15:32;;;;;;;14.00;4.00;;;;;;;5.48;100.00;103759.00;4977205;28;20041;-79
2021/12/18 01:23:28;;;;;;;13.68;4.00;;;;;;;5.41;100.00;103754.84;5012474;28;20037;-78
2021/12/18 01:25:56;;;;;;;9.68;3.88;;;;;;;5.40;100.00;103758.41;5012775;28;20041;-80
2021/12/18 01:28:22;;;;;;;11.98;3.88;;;;;;;5.40;100.00;103749.59;5019457;28;20060;-80
2021/12/18 01:30:47;;;;;;;16.40;5.13;;;;;;;5.44;100.00;103762.69;5009409;28;20037;-79
2021/12/18 01:33:13;;;;;;;12.60;4.00;;;;;;;5.39;100.00;103762.00;4993075;28;20026;-80
2021/12/18 01:35:38;;;;;;;22.10;5.57;;;;;;;5.44;100.00;103775.94;5009347;28;20081;-80
2021/12/18 01:38:04;;;;;;;16.80;4.68;;;;;;;5.44;100.00;103769.78;5015624;28;20044;-79
2021/12/18 01:40:30;;;;;;;11.80;3.72;;;;;;;5.43;100.00;103779.50;5028861;28;20041;-79
2021/12/18 01:43:32;;;;;;;;;;;;;;;5.47;100.00;103781.13;5013356;28;20045;-79
2021/12/18 01:51:44;;;;;;;21.02;5.43;;;;;;;5.40;100.00;103784.03;4992221;28;20041;-79
2021/12/18 01:54:10;;;;;;;13.95;4.57;;;;;;;5.37;100.00;103774.44;4992901;28;20026;-79
2021/12/18 01:56:35;;;;;;;14.20;4.80;;;;;;;5.41;100.00;103776.06;4992810;28;20479;-78
2021/12/18 01:59:01;;;;;;;17.63;5.47;;;;;;;5.49;100.00;103778.41;4990660;28;20041;-79
2021/12/18 02:01:28;;;;;;;15.57;5.13;;;;;;;5.43;100.00;103773.31;5012824;28;20045;-79
2021/12/18 02:03:53;;;;;;;12.77;5.00;;;;;;;5.46;100.00;103783.84;5012632;28;20635;-79
2021/12/18 02:06:20;;;;;;;23.38;6.35;;;;;;;5.48;100.00;103782.00;5028607;28;20040;-79
2021/12/18 02:08:45;;;;;;;11.75;3.90;;;;;;;5.42;100.00;103776.91;5028565;28;20037;-79
2021/12/18 02:11:26;;;;;;;17.30;4.47;;;;;;;5.46;100.00;103779.41;5028674;28;20029;-79
2021/12/18 02:19:50;;;;;;;12.57;4.50;;;;;;;5.45;100.00;103782.94;4996470;28;20102;-80
2021/12/18 02:22:17;;;;;;;17.77;4.32;;;;;;;5.49;100.00;103783.72;4976796;28;20050;-80
2021/12/18 02:24:43;;;;;;;16.95;5.18;;;;;;;5.43;100.00;103768.91;4992609;28;20069;-79
2021/12/18 02:27:09;;;;;;;14.32;5.05;;;;;;;5.41;100.00;103778.69;4976880;28;20026;-79
2021/12/18 02:29:37;;;;;;;16.70;5.88;;;;;;;5.54;100.00;103787.06;4993452;28;20658;-79
2021/12/18 02:32:05;;;;;;;28.88;6.53;;;;;;;5.48;100.00;103782.00;4995411;28;20042;-79
2021/12/18 02:34:32;;;;;;;12.25;4.88;;;;;;;5.47;100.00;103786.41;4976514;28;20026;-79
2021/12/18 02:37:05;;;;;;;13.10;4.13;;;;;;;5.49;100.00;103778.41;4992879;28;20046;-80
2021/12/18 02:42:09;;;;;;;15.52;4.35;;;;;;;5.49;100.00;103786.38;5010869;28;20038;-79
2021/12/18 02:44:41;;;;;;;11.10;4.13;;;;;;;5.56;100.00;103789.66;4992653;28;20467;-78
2021/12/18 02:47:08;;;;;;;17.23;4.55;;;;;;;5.54;100.00;103786.19;4992839;28;20033;-79
2021/12/18 02:49:33;;;;;;;18.58;4.80;;;;;;;5.53;100.00;103779.19;4992673;28;20084;-79
2021/12/18 02:51:59;;;;;;;15.40;4.82;;;;;;;5.52;100.00;103780.94;4986852;28;20487;-80
2021/12/18 02:54:26;;;;;;;14.70;4.10;;;;;;;5.54;100.00;103784.41;5028857;28;20033;-79
2021/12/18 02:56:52;;;;;;;15.52;4.82;;;;;;;5.51;100.00;103776.59;5011997;28;20037;-79
2021/12/18 02:59:18;;;;;;;;;;;;;;;5.55;100.00;103783.50;5013111;28;20032;-80
2021/12/18 03:01:43;;;;;;;;;;;;;;;5.56;100.00;103774.63;4989174;28;20029;-79
2021/12/18 03:04:33;;;;;;;12.77;4.83;;;;;;;5.52;100.00;103766.84;4996803;28;19924;-79
2021/12/18 03:07:02;;;;;;;14.65;4.35;;;;;;;5.49;100.00;103763.38;4980990;28;20037;-80
2021/12/18 03:25:19;;;;;;;8.55;3.47;;;;;;;5.52;100.00;103761.53;5032125;28;20021;-80
2021/12/18 03:27:45;;;;;;;8.73;3.35;;;;;;;5.48;100.00;103750.19;5015716;28;20050;-80
2021/12/18 03:30:12;;;;;;;8.23;3.50;;;;;;;5.43;100.00;103737.13;5013668;28;20044;-80
2021/12/18 03:32:37;;;;;;;9.98;3.78;;;;;;;5.44;100.00;103738.84;5026181;28;20415;-80
2021/12/18 03:35:04;;;;;;;11.95;4.05;;;;;;;5.38;100.00;103728.44;5047665;28;20034;-80
2021/12/18 03:37:30;;;;;;;6.07;2.58;;;;;;;5.42;100.00;103723.91;4998313;28;20557;-78
2021/12/18 03:39:55;;;;;;;5.50;1.92;;;;;;;5.32;100.00;103702.19;5031044;28;20124;-80
2021/12/18 03:42:21;;;;;;;6.80;2.22;;;;;;;5.25;100.00;103690.94;5002239;28;20199;-80
2021/12/18 03:44:48;;;;;;;6.18;3.00;;;;;;;5.29;100.00;103694.34;4994686;28;20037;-80
2021/12/18 03:47:13;;;;;;;5.38;1.75;;;;;;;5.30;100.00;103696.09;4995113;28;20124;-79
2021/12/18 03:49:39;;;;;;;4.32;1.17;;;;;;;5.30;100.00;103688.13;4978707;28;20519;-79
2021/12/18 03:52:05;;;;;;;2.90;1.50;;;;;;;5.35;100.00;103694.13;4978853;28;20475;-80
2021/12/18 03:54:30;;;;;;;2.63;1.25;;;;;;;5.27;100.00;103664.41;5012279;28;20113;-79
2021/12/18 03:56:56;;;;;;;2.30;1.20;;;;;;;5.31;100.00;103665.16;4994733;28;20041;-80
2021/12/18 03:59:21;;;;;;;5.00;1.25;;;;;;;5.31;100.00;103636.00;4994629;28;20521;-79
2021/12/18 04:01:47;;;;;;;2.92;1.33;;;;;;;5.22;100.00;103608.06;4984732;28;20474;-79
2021/12/18 04:04:13;;;;;;;2.75;1.05;;;;;;;5.28;100.00;103600.75;5013813;28;20088;-78
2021/12/18 04:06:39;;;;;;;2.83;1.23;;;;;;;5.36;100.00;103604.91;5013809;28;20033;-78
2021/12/18 04:09:06;;;;;;;2.80;1.38;;;;;;;5.31;100.00;103594.47;5014541;28;20124;-80
2021/12/18 04:11:32;;;;;;;4.13;1.38;;;;;;;5.21;100.00;103566.63;5026997;28;20041;-80
2021/12/18 04:13:57;;;;;;;2.85;1.33;;;;;;;5.28;100.00;103582.22;5020359;28;20033;-78
2021/12/18 04:16:23;;;;;;;3.78;1.85;;;;;;;5.31;100.00;103578.59;5031756;28;20061;-78
2021/12/18 04:18:48;;;;;;;3.73;1.80;;;;;;;5.31;100.00;103573.28;5014752;28;20030;-80
2021/12/18 04:21:14;;;;;;;5.25;1.50;;;;;;;5.22;100.00;103563.94;5012693;28;20065;-80
2021/12/18 04:23:40;;;;;;;3.28;1.60;;;;;;;5.28;100.00;103578.72;4995090;28;20038;-81
2021/12/18 04:26:05;;;;;;;3.58;1.60;;;;;;;5.25;100.00;103569.09;4995323;28;20073;-80
2021/12/18 04:28:31;;;;;;;3.70;1.40;;;;;;;5.26;100.00;103559.34;4995658;28;20029;-81
2021/12/18 04:30:56;;;;;;;1.80;0.90;;;;;;;5.27;100.00;103551.38;4995072;28;20383;-79
2021/12/18 04:33:22;;;;;;;4.45;1.17;;;;;;;5.18;100.00;103514.63;5014361;28;20036;-79
2021/12/18 04:35:47;;;;;;;1.70;1.00;;;;;;;5.27;100.00;103524.03;4998439;28;20045;-80
2021/12/18 04:38:13;;;;;;;2.63;1.10;;;;;;;5.20;100.00;103502.19;5015819;28;20276;-80
2021/12/18 04:40:40;;;;;;;6.17;1.40;;;;;;;5.23;100.00;103498.56;5015866;28;20041;-80
2021/12/18 04:43:06;;;;;;;2.30;0.90;;;;;;;5.20;100.00;103490.75;5015017;28;20133;-81
2021/12/18 04:45:31;;;;;;;3.75;1.58;;;;;;;5.17;100.00;103481.09;4994683;28;20125;-78
2021/12/18 04:47:57;;;;;;;2.95;1.02;;;;;;;5.17;100.00;103474.97;5011701;28;20065;-78
2021/12/18 04:50:23;;;;;;;1.75;0.90;;;;;;;5.08;100.00;103457.66;4995485;28;20045;-79
2021/12/18 04:52:49;;;;;;;2.17;1.25;;;;;;;5.04;100.00;103443.66;5009538;28;20067;-80
2021/12/18 04:55:15;;;;;;;2.80;0.73;;;;;;;5.18;100.00;103461.66;4998147;28;20075;-81
2021/12/18 04:57:41;;;;;;;3.38;1.40;;;;;;;5.27;100.00;103471.03;4998349;28;20047;-80
2021/12/18 05:00:09;;;;;;;7.47;1.73;;;;;;;5.23;100.00;103453.53;5031221;28;20045;-78
2021/12/18 05:02:39;;;;;;;3.35;1.27;;;;;;;5.26;100.00;103450.75;5002451;28;20041;-81
2021/12/18 05:05:05;;;;;;;6.43;1.45;;;;;;;5.23;100.00;103453.53;4992581;28;20061;-80
2021/12/18 05:07:31;;;;;;;2.78;1.23;;;;;;;5.19;100.00;103442.19;4992974;28;20108;-82
2021/12/18 05:09:57;;;;;;;4.35;1.58;;;;;;;5.24;100.00;103444.66;4993312;28;20136;-79
2021/12/18 05:12:23;;;;;;;4.88;1.60;;;;;;;5.17;100.00;103432.56;4991495;28;20087;-82
2021/12/18 05:14:48;;;;;;;3.58;1.40;;;;;;;5.22;100.00;103439.44;5001306;28;20057;-81
2021/12/18 05:17:14;;;;;;;5.80;1.53;;;;;;;5.24;100.00;103434.06;5001074;28;20044;-80
2021/12/18 05:19:39;;;;;;;6.05;1.55;;;;;;;5.26;100.00;103426.91;5034009;28;20284;-82
2021/12/18 05:22:05;;;;;;;4.93;1.63;;;;;;;5.17;100.00;103411.38;4992558;28;20073;-82
2021/12/18 05:24:31;;;;;;;2.97;1.73;;;;;;;5.19;100.00;103409.53;4980423;28;20080;-81
2021/12/18 05:26:56;;;;;;;5.65;1.92;;;;;;;5.29;100.00;103421.47;4981954;28;20942;-78
2021/12/18 05:29:22;;;;;;;4.82;1.92;;;;;;;5.21;100.00;103391.81;4997267;28;20140;-79
2021/12/18 05:31:48;;;;;;;4.20;1.80;;;;;;;5.13;100.00;103380.66;5002343;28;20041;-81
2021/12/18 05:34:21;;;;;;;4.90;1.85;;;;;;;5.08;100.00;103365.84;5016465;28;20387;-82
2021/12/18 05:39:19;;;;;;;3.88;1.67;;;;;;;5.06;100.00;103361.53;5049759;28;20033;-81
2021/12/18 05:41:46;;;;;;;6.33;2.37;;;;;;;4.99;100.00;103355.63;4995759;28;20029;-81
2021/12/18 05:44:11;;;;;;;7.30;1.95;;;;;;;5.01;100.00;103348.47;4996194;28;20033;-78
2021/12/18 05:46:37;;;;;;;5.13;1.92;;;;;;;5.05;100.00;103351.84;4997486;28;20038;-79
2021/12/18 05:49:03;;;;;;;4.77;1.90;;;;;;;4.99;100.00;103342.38;4997642;28;20045;-81
2021/12/18 05:51:31;;;;;;;4.85;1.90;;;;;;;4.88;100.00;103318.13;4982953;28;20036;-81
2021/12/18 05:53:56;;;;;;;7.47;2.85;;;;;;;5.03;100.00;103349.28;5033735;28;20037;-80
2021/12/18 05:56:22;;;;;;;7.90;2.28;;;;;;;4.95;100.00;103332.81;5034364;28;20048;-78
2021/12/18 05:58:47;;;;;;;6.30;2.50;;;;;;;5.01;100.00;103352.88;5034175;28;20049;-78
2021/12/18 06:01:13;;;;;;;5.10;1.70;;;;;;;5.02;100.00;103358.13;5034080;28;20280;-80
2021/12/18 06:03:40;;;;;;;7.07;2.63;;;;;;;5.11;100.00;103367.50;5016035;28;20085;-82
2021/12/18 06:06:06;;;;;;;6.28;2.20;;;;;;;5.01;100.00;103369.66;5033983;28;20081;-82
2021/12/18 06:08:33;;;;;;;8.13;2.47;;;;;;;5.01;100.00;103371.41;5033474;28;20065;-77
2021/12/18 06:11:07;;;;;;;8.35;2.60;;;;;;;5.05;100.00;103376.53;5016916;28;20102;-80
2021/12/18 06:13:34;;;;;;;7.90;2.42;;;;;;;5.02;100.00;103376.66;5015233;28;20045;-82
2021/12/18 06:15:59;;;;;;;10.18;3.88;;;;;;;5.01;100.00;103374.97;5014398;28;20046;-82
2021/12/18 06:18:25;;;;;;;8.93;2.80;;;;;;;5.04;100.00;103384.56;4997877;28;20038;-81
2021/12/18 06:20:50;;;;;;;7.50;2.83;;;;;;;4.95;100.00;103374.34;4998496;28;20280;-82
2021/12/18 06:23:15;;;;;;;10.80;3.43;;;;;;;5.02;100.00;103389.91;5014343;28;20036;-82
2021/12/18 06:25:41;;;;;;;9.17;2.90;;;;;;;5.02;100.00;103395.19;5014076;28;20041;-81
2021/12/18 06:28:06;;;;;;;7.23;2.53;;;;;;;5.08;100.00;103410.00;4997781;28;20078;-79
2021/12/18 06:30:32;;;;;;;7.13;2.63;;;;;;;5.03;100.00;103410.19;4997860;28;20277;-80
2021/12/18 06:32:57;;;;;;;7.67;2.57;;;;;;;5.06;100.00;103415.34;5014941;28;20292;-81
2021/12/18 06:35:23;;;;;;;7.00;2.80;;;;;;;5.02;100.00;103424.31;5013573;28;20038;-79
2021/12/18 06:37:49;;;;;;;6.72;2.60;;;;;;;5.08;100.00;103418.81;4996189;28;20083;-80
2021/12/18 06:40:14;;;;;;;7.72;2.95;;;;;;;5.03;100.00;103414.59;4999656;28;20022;-81
2021/12/18 06:42:40;;;;;;;8.53;2.93;;;;;;;4.97;100.00;103398.97;5007746;28;20056;-82
2021/12/18 06:45:07;;;;;;;9.25;2.97;;;;;;;4.92;100.00;103400.94;4997818;28;20069;-82
2021/12/18 06:47:33;;;;;;;5.95;2.47;;;;;;;4.89;100.00;103395.75;5012533;28;20053;-81
2021/12/18 06:49:58;;;;;;;6.80;2.50;;;;;;;4.92;100.00;103383.25;4979587;28;20018;-81
2021/12/18 06:52:24;;;;;;;10.70;3.05;;;;;;;4.97;100.00;103385.72;5011562;28;20760;-80
2021/12/18 06:54:49;;;;;;;8.80;3.10;;;;;;;4.92;100.00;103371.81;5001180;28;20030;-80
2021/12/18 06:57:15;;;;;;;7.67;2.83;;;;;;;4.90;100.00;103363.06;5001773;28;20037;-82
2021/12/18 06:59:40;;;;;;;8.18;2.97;;;;;;;4.89;100.00;103359.53;5035029;28;20033;-80
2021/12/18 07:02:06;;;;;;;11.50;3.65;;;;;;;4.87;100.00;103356.13;4995241;28;20948;-76
2021/12/18 07:04:31;;;;;;;10.60;4.27;;;;;;;4.95;100.00;103369.91;4993020;28;20061;-75
2021/12/18 07:06:56;;;;;;;14.07;4.30;;;;;;;4.98;100.00;103376.84;5043433;28;20041;-76
2021/12/18 07:09:22;;;;;;;12.00;4.10;;;;;;;4.96;100.00;103378.69;5026703;28;20116;-76
2021/12/18 07:11:47;;;;;;;6.67;3.83;;;;;;;4.95;100.00;103367.25;5010263;28;20528;-77
2021/12/18 07:14:13;;;;;;;13.13;4.37;;;;;;;4.99;100.00;103365.34;5026498;28;20288;-77
2021/12/18 07:16:39;;;;;;;9.17;3.50;;;;;;;4.94;100.00;103349.66;5043067;28;20363;-77
2021/12/18 07:19:05;;;;;;;9.48;4.15;;;;;;;5.06;100.00;103365.03;5010073;28;20120;-77
2021/12/18 07:21:30;;;;;;;5.30;2.07;;;;;;;4.93;100.00;103334.69;5005789;28;20112;-76
2021/12/18 07:23:55;;;;;;;6.28;2.58;;;;;;;4.90;100.00;103334.81;4974094;28;20089;-77
2021/12/18 07:26:21;;;;;;;6.78;2.95;;;;;;;4.87;100.00;103324.34;4974907;28;20052;-76
2021/12/18 07:28:46;;;;;;;6.25;2.45;;;;;;;4.80;100.00;103317.56;4974324;28;20046;-76
2021/12/18 07:31:12;;;;;;;5.82;2.40;;;;;;;5.12;100.00;103365.69;4975651;28;20065;-78
2021/12/18 07:33:41;;;;;;;5.63;2.30;;;;;;;5.25;100.00;103377.53;4993237;28;20045;-77
2021/12/18 07:36:07;;;;;;;6.65;2.88;;;;;;;5.10;100.00;103373.69;4999317;28;20049;-77
2021/12/18 07:38:33;;;;;;;;;;;;;;;5.05;100.00;103376.53;4987018;28;20489;-77
2021/12/18 07:40:58;;;;;;;;;;;;;;;5.05;100.00;103376.53;5021598;28;19913;-76
2021/12/18 07:43:24;;;;;;;5.00;2.10;;;;;;;5.02;100.00;103381.97;4988088;28;20013;-77
2021/12/18 07:45:49;;;;;;;7.23;2.90;;;;;;;4.92;100.00;103362.09;4988110;28;20483;-77
2021/12/18 07:48:15;;;;;;;10.50;3.40;;;;;;;4.93;100.00;103376.19;4988057;28;20299;-76
2021/12/18 07:50:40;;;;;;;9.57;2.90;;;;;;;4.87;100.00;103366.72;5009457;28;20840;-77
2021/12/18 07:53:05;;;;;;;8.63;3.00;;;;;;;4.85;100.00;103364.13;4992258;28;20402;-77
2021/12/18 07:55:31;;;;;;;7.95;3.20;;;;;;;4.97;100.00;103394.53;4976684;28;20044;-76
2021/12/18 07:57:57;;;;;;;7.43;3.47;;;;;;;4.99;100.00;103397.97;4976936;28;20397;-75
2021/12/18 08:00:22;;;;;;;8.27;2.53;;;;;;;4.90;100.00;103401.00;4992857;28;20427;-77
2021/12/18 08:02:49;;;;;;;8.40;2.73;;;;;;;4.98;100.00;103413.91;5007829;28;20129;-77
2021/12/18 08:05:15;;;;;;;7.05;2.78;;;;;;;5.07;100.00;103447.97;4992772;28;20069;-77
2021/12/18 08:07:41;;;;;;;8.13;2.83;;;;;;;5.01;100.00;103448.22;4988777;28;20033;-77
2021/12/18 08:10:07;;;;;;;8.38;4.25;;;;;;;5.05;100.00;103455.97;5013432;28;20515;-76
2021/12/18 08:12:33;;;;;;;9.50;3.22;;;;;;;5.07;100.00;103470.03;5000837;28;20057;-77
2021/12/18 08:14:59;;;;;;;10.45;3.33;;;;;;;5.01;100.00;103456.16;4999022;28;20057;-78
2021/12/18 08:17:25;;;;;;;8.18;3.30;;;;;;;4.97;100.00;103452.78;4988254;28;20395;-77
2021/12/18 08:19:50;;;;;;;7.82;3.30;;;;;;;5.00;100.00;103465.03;5036580;28;21451;-78
2021/12/18 08:22:16;;;;;;;11.63;4.45;;;;;;;4.96;100.00;103456.31;5004268;28;20033;-76
2021/12/18 08:24:41;;;;;;;7.15;3.40;;;;;;;5.08;100.00;103485.00;5035146;28;20025;-74
2021/12/18 08:27:08;;;;;;;6.60;3.03;;;;;;;5.08;100.00;103486.78;4993540;28;20407;-76
2021/12/18 08:29:33;;;;;;;;;;;;;;;5.07;100.00;103490.34;4993391;28;20112;-77
2021/12/18 08:31:59;;;;;;;5.65;3.13;;;;;;;4.94;100.00;103489.97;5010962;28;19940;-76
2021/12/18 08:34:25;;;;;;;7.50;4.07;;;;;;;5.10;100.00;103510.53;5010657;28;20026;-76
2021/12/18 08:36:50;;;;;;;9.80;3.45;;;;;;;5.12;100.00;103530.75;4993162;28;20108;-76
2021/12/18 08:39:17;;;;;;;7.88;4.00;;;;;;;5.13;100.00;103527.19;4992878;28;20034;-75
2021/12/18 08:41:45;;;;;;;7.72;3.78;;;;;;;5.12;100.00;103524.59;4993043;28;20026;-77
2021/12/18 08:44:11;;;;;;;7.78;3.60;;;;;;;5.17;100.00;103549.97;5012590;28;20036;-77
2021/12/18 08:46:37;;;;;;;5.30;3.47;;;;;;;5.18;100.00;103549.06;5010542;28;20407;-76
2021/12/18 08:49:03;;;;;;;7.03;3.55;;;;;;;5.21;100.00;103566.63;4986699;28;20036;-77
2021/12/18 08:51:28;;;;;;;7.85;3.83;;;;;;;5.24;100.00;103562.09;4987786;28;20033;-75
2021/12/18 08:53:54;;;;;;;7.00;3.90;;;;;;;5.20;100.00;103549.03;4991233;28;20026;-76
2021/12/18 08:56:19;;;;;;;8.23;3.77;;;;;;;5.22;100.00;103563.03;4992403;28;20037;-77
2021/12/18 08:58:45;;;;;;;7.00;3.30;;;;;;;5.27;100.00;103564.59;4992657;28;20314;-77
2021/12/18 09:01:10;;;;;;;10.13;3.63;;;;;;;5.36;100.00;103575.75;4991705;28;20594;-77
2021/12/18 09:03:36;;;;;;;10.20;3.70;;;;;;;5.29;100.00;103561.88;4993412;28;20654;-75
2021/12/18 09:06:02;;;;;;;6.05;3.40;;;;;;;5.32;100.00;103566.22;4993391;28;20073;-75
2021/12/18 09:08:28;;;;;;;5.68;3.30;;;;;;;5.26;100.00;103570.81;4992988;28;20109;-77
2021/12/18 09:10:53;;;;;;;8.77;3.30;;;;;;;5.39;100.00;103580.97;5010667;28;20113;-77
2021/12/18 09:13:19;;;;;;;8.73;3.63;;;;;;;5.42;100.00;103596.72;5025840;28;20107;-77
2021/12/18 09:15:45;;;;;;;7.95;3.40;;;;;;;5.39;100.00;103581.81;5009311;28;20045;-77
2021/12/18 09:18:11;;;;;;;6.72;3.15;;;;;;;5.38;100.00;103581.88;4993067;28;20061;-77
2021/12/18 09:20:37;;;;;;;8.13;3.70;;;;;;;5.42;100.00;103581.69;5025779;28;20399;-75
2021/12/18 09:23:02;;;;;;;7.45;3.25;;;;;;;5.40;100.00;103580.03;5009779;28;20042;-77
2021/12/18 09:25:28;;;;;;;4.65;2.65;;;;;;;5.47;100.00;103592.09;5007328;28;20116;-76
2021/12/18 09:27:56;;;;;;;5.93;2.58;;;;;;;5.60;100.00;103603.13;5025311;28;20049;-76
2021/12/18 09:30:22;;;;;;;6.57;2.60;;;;;;;5.57;100.00;103588.19;4992604;28;20512;-76
2021/12/18 09:32:48;;;;;;;;;;;;;;;5.50;100.00;103560.19;4992994;28;20065;-77
2021/12/18 09:35:13;;;;;;;;;;;;;;;5.58;100.00;103581.09;5008718;28;19952;-75
2021/12/18 09:37:39;;;;;;;5.90;3.30;;;;;;;5.57;100.00;103574.94;5006192;28;19913;-77
2021/12/18 09:40:06;;;;;;;6.78;3.17;;;;;;;5.57;100.00;103569.66;4991521;28;20116;-77
2021/12/18 09:42:32;;;;;;;4.35;2.47;;;;;;;5.57;100.00;103545.78;4991608;28;20038;-75
2021/12/18 09:44:57;;;;;;;8.52;3.60;;;;;;;5.61;100.00;103551.81;5007582;28;20030;-75
2021/12/18 09:47:23;;;;;;;4.83;2.77;;;;;;;5.56;100.00;103530.78;5024134;28;20040;-77
2021/12/18 09:49:49;;;;;;;7.90;3.08;;;;;;;5.62;100.00;103533.22;5006249;28;20060;-77
2021/12/18 09:52:15;;;;;;;;;;;;;;;5.71;100.00;103543.44;4990594;28;20041;-76
2021/12/18 09:54:40;;;;;;;5.93;3.13;;;;;;;5.67;100.00;103538.31;4989932;28;20015;-76
2021/12/18 09:57:06;;;;;;;6.83;2.97;;;;;;;5.66;100.00;103521.53;4990332;28;20029;-77
2021/12/18 09:59:32;;;;;;;8.52;3.20;;;;;;;5.71;100.00;103524.00;4989970;28;20072;-75
2021/12/18 10:02:01;;;;;;;6.05;3.63;;;;;;;5.69;100.00;103518.78;5007760;28;20054;-77
2021/12/18 10:04:35;;;;;;;8.85;3.85;;;;;;;5.75;100.00;103503.53;5006856;28;20070;-74
2021/12/18 10:07:14;;;;;;;22.75;5.30;;;;;;;5.77;100.00;103501.69;4986586;28;20030;-77
2021/12/18 10:09:40;;;;;;;9.75;4.20;;;;;;;5.79;100.00;103491.91;5003995;28;20399;-76
2021/12/18 10:12:21;;;;;;;12.93;4.70;;;;;;;5.79;100.00;103484.78;5005038;28;20028;-76
2021/12/18 10:14:56;;;;;;;10.30;4.65;;;;;;;5.82;100.00;103484.66;5032190;23;20040;-78
2021/12/18 10:17:28;;;;;;;13.57;4.75;;;;;;;5.86;100.00;103480.09;5065468;28;20036;-76
2021/12/18 10:20:09;;;;;;;13.45;4.43;;;;;;;5.91;100.00;103480.75;5043141;28;20032;-75
2021/12/18 10:22:35;;;;;;;11.75;4.78;;;;;;;5.92;100.00;103470.09;5040323;28;20054;-75
2021/12/18 10:25:06;;;;;;;13.05;5.05;;;;;;;5.95;100.00;103457.63;5065209;28;20017;-76
2021/12/18 10:27:33;;;;;;;12.88;5.63;;;;;;;5.97;100.00;103456.69;5044772;28;20056;-76
2021/12/18 10:30:13;;;;;;;20.02;4.85;;;;;;;5.97;100.00;103435.47;5047553;28;20036;-76
2021/12/18 10:32:38;;;;;;;11.77;5.15;;;;;;;5.97;100.00;103435.47;5045870;28;20116;-76
2021/12/18 10:35:05;;;;;;;14.68;5.35;;;;;;;5.99;100.00;103419.47;5065177;28;20032;-75
2021/12/18 10:37:33;;;;;;;22.48;7.35;;;;;;;6.07;100.00;103430.59;5047329;28;20573;-75
2021/12/18 10:40:09;;;;;;;16.05;5.68;;;;;;;6.10;100.00;103419.84;5065397;28;20028;-75
2021/12/18 10:42:36;;;;;;;19.35;6.20;;;;;;;6.17;100.00;103410.69;5039023;28;20032;-76
2021/12/18 10:45:06;;;;;;;19.33;7.25;;;;;;;6.26;100.00;103414.72;5064970;28;20064;-76
2021/12/18 10:47:56;;;;;;;16.13;5.97;;;;;;;6.28;100.00;103381.03;5044477;28;20040;-75
2021/12/18 10:50:28;;;;;;;17.33;6.65;;;;;;;6.22;100.00;103355.63;5062322;28;20036;-75
2021/12/18 10:52:57;;;;;;;18.95;5.68;;;;;;;6.25;100.00;103354.63;5060420;28;20025;-75
2021/12/18 10:55:31;;;;;;;21.20;6.15;;;;;;;6.25;100.00;103336.94;5064580;28;20023;-76
2021/12/18 10:57:57;;;;;;;26.67;8.10;;;;;;;6.30;100.00;103332.28;5060238;28;20029;-76
2021/12/18 11:00:46;;;;;;;14.70;6.07;;;;;;;6.32;100.00;103317.16;5065074;28;20468;-76
2021/12/18 11:03:20;;;;;;;29.77;6.10;;;;;;;6.39;100.00;103322.16;5061551;28;20040;-76
2021/12/18 11:06:16;;;;;;;22.17;5.60;;;;;;;6.39;100.00;103308.88;5061881;28;20699;-76
2021/12/18 11:09:09;;;;;;;16.38;6.70;;;;;;;6.39;100.00;103299.16;5039047;28;20199;-76
2021/12/18 11:14:16;;;;;;;24.10;6.40;;;;;;;6.49;100.00;103300.41;5064617;28;20024;-76
2021/12/18 11:16:46;;;;;;;18.60;5.97;;;;;;;6.54;100.00;103295.75;5046977;28;20032;-76
2021/12/18 11:19:16;;;;;;;19.95;5.63;;;;;;;6.64;100.00;103293.50;5061758;28;20058;-76
2021/12/18 11:21:50;;;;;;;21.60;4.63;;;;;;;6.62;100.00;103278.59;5047022;28;20624;-76
2021/12/18 11:24:16;;;;;;;22.30;5.65;;;;;;;6.70;100.00;103265.81;5049802;28;20021;-76
2021/12/18 11:27:00;;;;;;;24.08;6.63;;;;;;;6.72;100.00;103248.88;5050805;28;20108;-76
2021/12/18 11:29:44;;;;;;;18.48;5.32;;;;;;;6.79;100.00;103237.94;5050999;28;20487;-77
2021/12/18 11:32:13;;;;;;;25.00;5.00;;;;;;;6.76;100.00;103218.56;5069218;28;20028;-75
2021/12/18 11:34:40;;;;;;;17.05;4.85;;;;;;;6.80;100.00;103206.00;5051025;28;20021;-75
2021/12/18 11:37:07;;;;;;;;;;;;;;;6.82;100.00;103185.53;5068964;28;20029;-76
2021/12/18 11:39:34;;;;;;;14.50;4.15;;;;;;;6.85;100.00;103173.91;5064901;28;19913;-75
2021/12/18 11:41:59;;;;;;;20.58;4.88;;;;;;;6.87;100.00;103150.78;5068849;28;20104;-77
2021/12/18 11:44:31;;;;;;;34.40;5.70;;;;;;;6.94;100.00;103146.88;5030765;28;20029;-76
2021/12/18 11:47:27;;;;;;;17.25;5.03;;;;;;;6.92;100.00;103132.81;5032927;28;20470;-75
2021/12/18 11:49:56;;;;;;;21.40;4.65;;;;;;;6.92;100.00;103117.72;5043632;28;20405;-75
2021/12/18 11:52:22;;;;;;;28.17;6.38;;;;;;;7.00;100.00;103104.06;5050990;28;20074;-76
2021/12/18 11:54:50;;;;;;;19.95;5.38;;;;;;;7.06;100.00;103094.91;5067471;28;20425;-76
2021/12/18 11:57:38;;;;;;;15.38;5.38;;;;;;;7.05;100.00;103061.31;5050585;28;20275;-77
2021/12/18 12:00:06;;;;;;;14.43;4.43;;;;;;;7.03;100.00;103045.44;5062134;28;20028;-76
2021/12/18 12:02:45;;;;;;;14.88;4.72;;;;;;;7.03;100.00;103026.84;5068645;28;20031;-76
2021/12/18 12:05:12;;;;;;;22.98;5.72;;;;;;;7.05;100.00;103019.66;5030395;28;20029;-75
2021/12/18 12:07:38;;;;;;;19.98;4.93;;;;;;;7.10;100.00;103011.44;5042099;28;20032;-75
2021/12/18 12:10:11;;;;;;;19.13;5.43;;;;;;;7.10;100.00;102998.16;5068205;28;20064;-75
2021/12/18 12:12:55;;;;;;;26.05;4.80;;;;;;;7.10;100.00;102995.50;5050713;28;20087;-76